createdAt,value
2019-03-15T00:01:55.962Z,0.77
2019-03-15T00:04:24.315Z,0.70
2019-03-15T00:06:52.590Z,0.83
2019-03-15T00:09:20.886Z,0.80
2019-03-15T00:11:49.228Z,0.83
2019-03-15T00:14:17.518Z,0.77
2019-03-15T00:16:45.792Z,0.87
2019-03-15T00:19:14.063Z,1.10
2019-03-15T00:21:42.356Z,0.80
2019-03-15T00:24:10.626Z,0.90
2019-03-15T00:26:38.910Z,0.80
2019-03-15T00:29:07.184Z,0.93
2019-03-15T00:31:35.533Z,0.90
2019-03-15T00:34:03.840Z,0.90
2019-03-15T00:36:32.214Z,0.90
2019-03-15T00:39:00.496Z,0.70
2019-03-15T00:41:28.845Z,1.00
2019-03-15T00:43:57.126Z,1.00
2019-03-15T00:46:25.403Z,1.00
2019-03-15T00:48:53.700Z,1.10
2019-03-15T00:51:21.978Z,1.00
2019-03-15T00:53:50.272Z,0.80
2019-03-15T00:56:18.557Z,0.80
2019-03-15T00:58:46.910Z,1.20
2019-03-15T01:01:15.184Z,0.90
2019-03-15T01:03:43.496Z,0.97
2019-03-15T01:06:11.832Z,0.93
2019-03-15T01:08:40.121Z,1.03
2019-03-15T01:11:08.393Z,0.90
2019-03-15T01:13:37.074Z,0.90
2019-03-15T01:16:05.481Z,0.90
2019-03-15T01:18:35.140Z,0.87
2019-03-15T01:21:03.430Z,0.90
2019-03-15T01:23:37.429Z,0.80
2019-03-15T01:43:29.661Z,0.87
2019-03-15T01:45:57.929Z,1.30
2019-03-15T01:48:26.223Z,1.10
2019-03-15T01:50:54.505Z,1.10
2019-03-15T01:53:23.520Z,1.10
2019-03-15T01:55:52.111Z,0.90
2019-03-15T01:58:20.478Z,1.30
2019-03-15T02:00:48.750Z,1.10
2019-03-15T02:03:17.042Z,1.00
2019-03-15T02:05:45.320Z,1.10
2019-03-15T02:08:13.658Z,1.10
2019-03-15T02:10:41.952Z,1.40
2019-03-15T02:13:10.222Z,1.03
2019-03-15T02:15:38.519Z,1.00
2019-03-15T02:18:06.872Z,1.00
2019-03-15T02:20:35.156Z,1.13
2019-03-15T02:23:03.436Z,1.20
2019-03-15T02:25:31.725Z,1.27
2019-03-15T02:27:59.999Z,1.07
2019-03-15T02:30:28.677Z,1.20
2019-03-15T02:32:57.118Z,1.07
2019-03-15T02:35:25.497Z,1.30
2019-03-15T02:37:53.863Z,1.00
2019-03-15T02:40:22.138Z,1.03
2019-03-15T02:42:50.439Z,1.13
2019-03-15T02:45:18.793Z,1.10
2019-03-15T02:47:47.181Z,1.00
2019-03-15T02:50:15.500Z,1.07
2019-03-15T02:52:43.867Z,1.17
2019-03-15T02:55:12.224Z,1.20
2019-03-15T02:57:40.511Z,1.10
2019-03-15T03:00:09.343Z,1.10
2019-03-15T03:02:37.702Z,1.37
2019-03-15T03:05:08.617Z,1.33
2019-03-15T03:07:36.953Z,1.20
2019-03-15T03:10:07.444Z,1.10
2019-03-15T03:12:35.821Z,1.30
2019-03-15T03:15:06.390Z,1.00
2019-03-15T03:17:34.677Z,1.30
2019-03-15T03:20:03.408Z,1.23
2019-03-15T03:22:31.753Z,1.27
2019-03-15T03:25:00.142Z,1.10
2019-03-15T03:27:28.709Z,1.30
2019-03-15T03:29:57.030Z,1.30
2019-03-15T03:32:25.316Z,1.33
2019-03-15T03:34:53.674Z,1.30
2019-03-15T03:37:22.028Z,1.40
2019-03-15T03:39:50.310Z,1.30
2019-03-15T03:42:18.677Z,1.33
2019-03-15T03:44:46.949Z,1.13
2019-03-15T03:47:15.234Z,1.27
2019-03-15T03:49:43.536Z,1.20
2019-03-15T03:52:11.900Z,1.50
2019-03-15T03:54:40.172Z,1.50
2019-03-15T03:57:08.469Z,1.30
2019-03-15T03:59:36.748Z,1.30
2019-03-15T04:02:05.046Z,1.30
2019-03-15T04:04:33.320Z,1.40
2019-03-15T04:07:01.629Z,1.27
2019-03-15T04:09:29.967Z,1.20
2019-03-15T04:11:58.259Z,1.47
2019-03-15T04:14:26.563Z,1.50
2019-03-15T04:16:54.902Z,1.40
2019-03-15T04:19:23.190Z,1.40
2019-03-15T04:21:51.543Z,1.47
2019-03-15T04:24:19.818Z,1.57
2019-03-15T04:26:48.113Z,1.23
2019-03-15T04:29:16.705Z,1.30
2019-03-15T04:31:45.045Z,1.50
2019-03-15T04:34:13.331Z,1.37
2019-03-15T04:36:41.709Z,1.57
2019-03-15T04:39:09.999Z,1.33
2019-03-15T04:41:38.274Z,1.40
2019-03-15T04:44:06.642Z,1.57
2019-03-15T04:46:34.921Z,1.30
2019-03-15T04:49:03.273Z,1.30
2019-03-15T04:51:31.551Z,1.30
2019-03-15T04:53:59.845Z,1.17
2019-03-15T04:56:28.123Z,1.30
2019-03-15T04:58:56.422Z,1.40
2019-03-15T05:01:24.698Z,1.10
2019-03-15T05:03:53.065Z,1.30
2019-03-15T05:06:21.345Z,1.17
2019-03-15T05:08:49.755Z,1.10
2019-03-15T05:11:18.096Z,1.20
2019-03-15T05:13:46.391Z,1.40
2019-03-15T05:16:14.684Z,1.20
2019-03-15T05:18:42.972Z,1.30
2019-03-15T05:21:11.253Z,1.20
2019-03-15T05:23:39.704Z,1.27
2019-03-15T05:26:08.059Z,1.27
2019-03-15T05:28:36.429Z,1.10
2019-03-15T05:31:04.984Z,1.10
2019-03-15T05:33:34.894Z,1.03
2019-03-15T05:36:03.191Z,1.27
2019-03-15T05:38:34.605Z,1.00
2019-03-15T05:41:02.718Z,1.13
2019-03-15T05:43:31.007Z,1.30
2019-03-15T05:45:59.304Z,1.40
2019-03-15T05:48:27.575Z,1.10
2019-03-15T05:50:55.877Z,1.20
2019-03-15T05:53:24.146Z,1.03
2019-03-15T05:55:52.447Z,1.20
2019-03-15T05:58:22.000Z,1.10
2019-03-15T06:00:50.487Z,0.97
2019-03-15T06:03:18.761Z,1.00
2019-03-15T06:05:47.057Z,1.10
2019-03-15T06:08:15.333Z,1.30
2019-03-15T06:10:43.620Z,1.20
2019-03-15T06:13:11.892Z,0.90
2019-03-15T06:15:40.273Z,1.00
2019-03-15T06:18:08.553Z,1.20
2019-03-15T06:20:36.900Z,1.00
2019-03-15T06:23:05.273Z,1.17
2019-03-15T06:25:33.541Z,1.00
2019-03-15T06:28:01.923Z,0.90
2019-03-15T06:30:30.272Z,1.07
2019-03-15T06:32:58.573Z,1.07
2019-03-15T06:35:27.058Z,1.13
2019-03-15T06:37:55.342Z,1.00
2019-03-15T06:40:23.616Z,1.13
2019-03-15T06:42:51.938Z,0.93
2019-03-15T06:45:20.252Z,1.40
2019-03-15T06:47:48.542Z,1.17
2019-03-15T06:50:16.826Z,1.40
2019-03-15T06:52:45.241Z,1.30
2019-03-15T06:55:13.516Z,1.10
2019-03-15T06:57:41.782Z,1.07
2019-03-15T07:00:14.586Z,1.20
2019-03-15T07:02:42.935Z,1.20
2019-03-15T07:05:12.282Z,1.03
2019-03-15T07:07:41.079Z,0.97
2019-03-15T07:10:10.591Z,1.33
2019-03-15T07:12:40.478Z,1.10
2019-03-15T07:15:10.594Z,1.40
2019-03-15T07:17:38.930Z,1.07
2019-03-15T07:20:10.471Z,1.00
2019-03-15T07:22:38.837Z,1.10
2019-03-15T07:25:08.857Z,0.97
2019-03-15T07:27:37.128Z,1.30
2019-03-15T07:30:10.406Z,1.10
2019-03-15T07:32:38.684Z,1.17
2019-03-15T07:35:07.532Z,1.17
2019-03-15T07:37:35.997Z,1.10
2019-03-15T07:40:06.681Z,1.00
2019-03-15T07:42:34.956Z,1.20
2019-03-15T07:45:04.792Z,1.10
2019-03-15T07:47:33.061Z,1.20
2019-03-15T07:50:01.357Z,1.20
2019-03-15T07:52:29.638Z,1.20
2019-03-15T07:54:57.942Z,1.10
2019-03-15T07:57:26.306Z,1.10
2019-03-15T07:59:54.606Z,1.10
2019-03-15T08:02:22.960Z,1.00
2019-03-15T08:04:51.380Z,1.00
2019-03-15T08:07:20.193Z,1.00
2019-03-15T08:09:50.771Z,1.10
2019-03-15T08:12:18.741Z,1.10
2019-03-15T08:14:47.007Z,1.20
2019-03-15T08:17:15.305Z,1.10
2019-03-15T08:19:43.782Z,1.10
2019-03-15T08:22:12.069Z,1.27
2019-03-15T08:24:51.096Z,1.20
2019-03-15T08:27:10.356Z,1.10
2019-03-15T08:29:38.712Z,1.40
2019-03-15T08:32:07.003Z,1.13
2019-03-15T08:34:35.277Z,0.90
2019-03-15T08:37:03.572Z,1.33
2019-03-15T08:39:31.854Z,1.13
2019-03-15T08:42:00.148Z,1.00
2019-03-15T08:44:28.502Z,1.17
2019-03-15T08:46:56.802Z,1.40
2019-03-15T08:49:25.079Z,1.20
2019-03-15T08:52:03.374Z,1.70
2019-03-15T08:54:23.360Z,1.13
2019-03-15T08:56:51.647Z,1.13
2019-03-15T08:59:19.920Z,1.10
2019-03-15T09:01:48.214Z,1.27
2019-03-15T09:04:16.489Z,1.23
2019-03-15T09:06:44.784Z,1.10
2019-03-15T09:09:13.058Z,1.40
2019-03-15T09:11:41.354Z,1.30
2019-03-15T09:14:09.647Z,1.20
2019-03-15T09:16:38.012Z,1.60
2019-03-15T09:19:06.290Z,1.10
2019-03-15T09:21:34.658Z,1.43
2019-03-15T09:24:02.932Z,1.60
2019-03-15T09:26:31.229Z,1.20
2019-03-15T09:28:59.501Z,1.40
2019-03-15T09:31:27.797Z,1.30
2019-03-15T09:33:56.139Z,1.60
2019-03-15T09:36:24.441Z,1.37
2019-03-15T09:38:52.730Z,1.33
2019-03-15T09:41:31.888Z,1.37
2019-03-15T09:43:51.145Z,1.40
2019-03-15T09:46:19.519Z,1.30
2019-03-15T09:48:47.861Z,1.17
2019-03-15T09:51:16.157Z,1.40
2019-03-15T09:53:44.435Z,1.30
2019-03-15T09:56:12.721Z,1.40
2019-03-15T09:58:41.012Z,1.40
2019-03-15T10:01:09.355Z,1.60
2019-03-15T10:03:37.868Z,1.40
2019-03-15T10:06:14.728Z,1.43
2019-03-15T10:08:36.159Z,1.37
2019-03-15T10:11:04.504Z,1.60
2019-03-15T10:13:32.789Z,1.30
2019-03-15T10:16:01.152Z,1.30
2019-03-15T10:18:29.498Z,1.50
2019-03-15T10:20:57.776Z,1.30
2019-03-15T10:23:26.172Z,1.33
2019-03-15T10:25:54.575Z,1.30
2019-03-15T10:28:22.859Z,1.30
2019-03-15T10:30:51.132Z,1.50
2019-03-15T10:33:19.421Z,1.30
2019-03-15T10:35:47.721Z,1.30
2019-03-15T10:38:16.861Z,1.50
2019-03-15T10:40:45.328Z,1.23
2019-03-15T10:43:13.611Z,1.30
2019-03-15T10:45:41.905Z,1.50
2019-03-15T10:48:10.193Z,1.17
2019-03-15T10:50:38.491Z,1.33
2019-03-15T10:53:06.849Z,1.10
2019-03-15T10:55:35.229Z,1.17
2019-03-15T10:58:03.589Z,1.20
2019-03-15T11:00:32.324Z,1.10
2019-03-15T11:03:00.627Z,1.03
2019-03-15T11:05:28.913Z,1.53
2019-03-15T11:07:57.215Z,1.10
2019-03-15T11:10:25.563Z,1.10
2019-03-15T11:12:53.932Z,1.10
2019-03-15T11:15:22.400Z,1.13
2019-03-15T11:17:50.690Z,0.93
2019-03-15T11:20:18.962Z,1.10
2019-03-15T11:22:47.268Z,0.80
2019-03-15T11:25:15.547Z,0.80
2019-03-15T11:27:43.821Z,0.93
2019-03-15T11:30:15.164Z,0.90
2019-03-15T11:32:43.509Z,0.97
2019-03-15T11:35:12.171Z,0.97
2019-03-15T11:37:40.447Z,0.70
2019-03-15T11:40:14.950Z,0.70
2019-03-15T11:42:43.223Z,0.70
2019-03-15T11:45:12.663Z,0.70
2019-03-15T11:48:01.326Z,0.63
2019-03-15T11:50:13.043Z,0.90
2019-03-15T11:52:41.329Z,0.70
2019-03-15T11:55:30.671Z,0.70
2019-03-15T11:57:59.015Z,0.60
2019-03-15T12:00:27.289Z,0.80
2019-03-15T12:02:55.585Z,0.80
2019-03-15T12:05:23.878Z,0.70
2019-03-15T12:07:52.287Z,0.60
2019-03-15T12:10:20.647Z,0.60
2019-03-15T12:12:49.017Z,0.60
2019-03-15T12:15:18.415Z,0.60
2019-03-15T12:17:46.704Z,0.50
2019-03-15T12:20:14.971Z,0.73
2019-03-15T12:22:43.276Z,0.70
2019-03-15T12:25:12.161Z,0.77
2019-03-15T12:27:40.462Z,0.60
2019-03-15T12:30:16.499Z,0.47
2019-03-15T12:32:44.791Z,0.80
2019-03-15T12:35:13.910Z,0.60
2019-03-15T12:37:42.274Z,0.70
2019-03-15T12:40:15.415Z,0.90
2019-03-15T12:42:43.716Z,0.63
2019-03-15T12:45:12.761Z,0.60
2019-03-15T12:47:41.098Z,0.73
2019-03-15T12:50:10.715Z,0.40
2019-03-15T12:52:47.058Z,0.63
2019-03-15T12:55:10.554Z,0.70
2019-03-15T12:57:38.851Z,0.80
2019-03-15T13:00:14.234Z,0.67
2019-03-15T13:02:42.618Z,0.60
2019-03-15T13:05:10.900Z,0.67
2019-03-15T13:07:39.264Z,0.80
2019-03-15T13:10:13.082Z,0.87
2019-03-15T13:12:41.452Z,0.80
2019-03-15T13:15:11.975Z,1.03
2019-03-15T13:17:40.327Z,1.00
2019-03-15T13:20:10.886Z,0.90
2019-03-15T13:22:39.205Z,1.07
2019-03-15T13:25:12.194Z,1.17
2019-03-15T13:27:40.539Z,1.30
2019-03-15T13:30:16.796Z,1.27
2019-03-15T13:32:45.180Z,1.30
2019-03-15T13:35:13.536Z,1.10
2019-03-15T13:37:43.176Z,1.40
2019-03-15T13:40:14.365Z,1.30
2019-03-15T13:42:42.645Z,1.50
2019-03-15T13:45:12.067Z,1.60
2019-03-15T13:47:40.432Z,1.07
2019-03-15T13:50:20.850Z,1.60
2019-03-15T13:52:49.250Z,1.53
2019-03-15T13:55:17.584Z,1.30
2019-03-15T13:57:45.932Z,1.30
2019-03-15T14:00:19.266Z,1.40
2019-03-15T14:02:47.540Z,1.20
2019-03-15T14:05:15.895Z,1.60
2019-03-15T14:07:44.254Z,1.73
2019-03-15T14:10:16.405Z,1.30
2019-03-15T14:12:44.709Z,1.70
2019-03-15T14:15:14.189Z,1.30
2019-03-15T14:17:42.549Z,1.40
2019-03-15T14:20:12.743Z,1.50
2019-03-15T14:22:41.045Z,1.50
2019-03-15T14:25:18.042Z,1.50
2019-03-15T14:27:46.338Z,1.40
2019-03-15T14:30:14.882Z,1.40
2019-03-15T14:32:43.193Z,1.37
2019-03-15T14:35:11.534Z,1.80
2019-03-15T14:37:40.231Z,1.47
2019-03-15T14:40:10.198Z,1.50
2019-03-15T14:42:38.862Z,1.43
2019-03-15T14:45:12.126Z,1.57
2019-03-15T14:47:40.837Z,1.40
2019-03-15T14:50:13.367Z,1.30
2019-03-15T14:52:41.793Z,1.30
2019-03-15T14:55:15.207Z,1.40
2019-03-15T14:57:52.002Z,1.73
2019-03-15T15:00:15.223Z,1.20
2019-03-15T15:02:43.591Z,1.43
2019-03-15T15:05:12.294Z,1.60
2019-03-15T15:07:40.602Z,1.30
2019-03-15T15:10:13.980Z,1.57
2019-03-15T15:13:01.765Z,1.43
2019-03-15T15:15:30.063Z,1.27
2019-03-15T15:17:58.349Z,1.40
2019-03-15T15:20:26.635Z,1.50
2019-03-15T15:22:54.991Z,1.30
2019-03-15T15:25:23.310Z,1.53
2019-03-15T15:28:03.762Z,1.30
2019-03-15T15:30:21.726Z,1.57
2019-03-15T15:32:50.080Z,1.43
2019-03-15T15:35:18.371Z,1.60
2019-03-15T15:37:46.687Z,1.70
2019-03-15T15:40:17.582Z,1.40
2019-03-15T15:42:45.882Z,1.50
2019-03-15T15:45:14.149Z,1.10
2019-03-15T15:47:42.446Z,1.80
2019-03-15T15:50:14.314Z,1.40
2019-03-15T15:52:42.620Z,1.47
2019-03-15T15:55:12.172Z,1.50
2019-03-15T15:57:40.450Z,1.50
2019-03-15T16:00:17.096Z,1.47
2019-03-15T16:02:45.449Z,1.67
2019-03-15T16:05:13.747Z,1.60
2019-03-15T16:07:42.317Z,1.37
2019-03-15T16:10:17.912Z,1.70
2019-03-15T16:12:44.891Z,1.40
2019-03-15T16:15:20.099Z,1.53
2019-03-15T16:17:48.449Z,1.70
2019-03-15T16:20:16.825Z,1.60
2019-03-15T16:22:45.174Z,1.53
2019-03-15T16:25:13.630Z,1.27
2019-03-15T16:27:42.086Z,1.80
2019-03-15T16:30:16.439Z,1.50
2019-03-15T16:32:44.716Z,1.30
2019-03-15T16:35:14.637Z,1.43
2019-03-15T16:37:42.992Z,1.60
2019-03-15T16:40:15.013Z,1.27
2019-03-15T16:42:43.348Z,1.40
2019-03-15T16:45:32.005Z,1.30
2019-03-15T16:48:00.285Z,1.40
2019-03-15T16:50:28.592Z,1.50
2019-03-15T16:52:56.939Z,1.30
2019-03-15T16:55:25.244Z,1.50
2019-03-15T16:57:53.667Z,1.47
2019-03-15T17:00:21.961Z,1.30
2019-03-15T17:02:50.233Z,1.23
2019-03-15T17:05:18.533Z,1.10
2019-03-15T17:07:46.823Z,1.40
2019-03-15T17:10:18.968Z,1.33
2019-03-15T17:12:47.238Z,1.53
2019-03-15T17:15:20.830Z,1.60
2019-03-15T17:17:49.177Z,1.87
2019-03-15T17:20:17.475Z,2.20
2019-03-15T17:22:45.752Z,2.50
2019-03-15T17:25:14.159Z,2.73
2019-03-15T17:27:42.455Z,2.60
2019-03-15T17:30:17.081Z,2.60
2019-03-15T17:32:45.443Z,3.10
2019-03-15T17:35:14.853Z,3.73
2019-03-15T17:37:43.165Z,3.30
2019-03-15T17:40:13.437Z,4.27
2019-03-15T17:42:41.802Z,3.87
2019-03-15T17:45:11.217Z,4.17
2019-03-15T17:47:39.592Z,3.90
2019-03-15T17:50:15.842Z,3.87
2019-03-15T17:52:44.238Z,3.90
2019-03-15T17:55:12.597Z,4.10
2019-03-15T17:57:41.122Z,4.20
2019-03-15T18:00:37.151Z,4.07
2019-03-15T18:03:19.848Z,3.83
2019-03-15T18:05:36.455Z,3.53
2019-03-15T18:08:04.738Z,3.80
2019-03-15T18:10:33.254Z,3.37
2019-03-15T18:13:01.818Z,2.90
2019-03-15T18:15:30.398Z,3.07
2019-03-15T18:18:00.152Z,3.30
2019-03-15T18:20:28.808Z,3.13
2019-03-15T18:22:57.084Z,2.87
2019-03-15T18:25:25.556Z,3.20
2019-03-15T18:27:53.913Z,3.07
2019-03-15T18:30:22.270Z,2.83
2019-03-15T18:32:50.567Z,2.80
2019-03-15T18:35:32.603Z,2.57
2019-03-15T18:37:48.938Z,2.83
2019-03-15T18:40:18.453Z,2.60
2019-03-15T18:42:46.850Z,2.87
2019-03-15T18:45:16.405Z,2.37
2019-03-15T18:47:44.698Z,2.67
2019-03-15T18:50:24.058Z,2.50
2019-03-15T18:52:52.777Z,2.50
2019-03-15T18:55:21.081Z,2.93
2019-03-15T18:57:49.416Z,2.50
2019-03-15T19:00:20.568Z,2.30
2019-03-15T19:02:49.176Z,2.60
2019-03-15T19:05:17.452Z,2.07
2019-03-15T19:07:45.742Z,2.30
2019-03-15T19:10:16.973Z,1.93
2019-03-15T19:12:45.353Z,2.17
2019-03-15T19:15:17.973Z,2.00
2019-03-15T19:17:46.264Z,2.30
2019-03-15T19:20:15.824Z,2.00
2019-03-15T19:22:45.179Z,1.90
2019-03-15T19:25:14.471Z,2.00
2019-03-15T19:27:42.848Z,1.97
2019-03-15T19:30:17.853Z,2.23
2019-03-15T19:32:46.328Z,2.37
2019-03-15T19:35:14.913Z,1.63
2019-03-15T19:37:45.423Z,2.10
2019-03-15T19:40:15.434Z,1.90
2019-03-15T19:42:45.432Z,1.73
2019-03-15T19:45:14.616Z,1.67
2019-03-15T19:47:43.361Z,1.80
2019-03-15T19:50:16.434Z,1.70
2019-03-15T19:52:44.769Z,1.60
2019-03-15T19:55:14.481Z,1.67
2019-03-15T19:57:42.943Z,1.60
2019-03-15T20:00:18.369Z,1.70
2019-03-15T20:02:46.673Z,1.50
2019-03-15T20:05:15.072Z,1.70
2019-03-15T20:07:43.990Z,1.70
2019-03-15T20:10:16.329Z,1.63
2019-03-15T20:12:44.132Z,1.40
2019-03-15T20:15:13.856Z,1.50
2019-03-15T20:17:42.347Z,1.43
2019-03-15T20:20:18.769Z,1.57
2019-03-15T20:22:47.129Z,1.60
2019-03-15T20:25:18.551Z,1.87
2019-03-15T20:27:46.917Z,1.50
2019-03-15T20:30:24.579Z,1.70
2019-03-15T20:32:50.551Z,1.70
2019-03-15T20:35:18.905Z,2.10
2019-03-15T20:37:47.208Z,1.50
2019-03-15T20:40:15.641Z,1.73
2019-03-15T20:42:43.986Z,1.57
2019-03-15T20:45:21.319Z,1.60
2019-03-15T20:47:49.700Z,1.60
2019-03-15T20:50:17.970Z,1.60
2019-03-15T20:52:46.337Z,1.57
2019-03-15T20:55:14.970Z,1.40
2019-03-15T20:57:43.274Z,1.43
2019-03-15T21:00:14.352Z,1.70
2019-03-15T21:02:42.747Z,1.50
2019-03-15T21:05:11.112Z,1.77
2019-03-15T21:07:39.458Z,1.23
2019-03-15T21:10:10.382Z,1.70
2019-03-15T21:12:38.738Z,1.70
2019-03-15T21:15:09.582Z,1.80
2019-03-15T21:17:37.857Z,1.70
2019-03-15T21:20:11.604Z,1.50
2019-03-15T21:22:40.060Z,1.70
2019-03-15T21:25:09.806Z,1.50
2019-03-15T21:27:38.142Z,1.40
2019-03-15T21:30:17.342Z,1.50
2019-03-15T21:32:45.704Z,1.50
2019-03-15T21:35:14.097Z,1.40
2019-03-15T21:37:42.412Z,1.73
2019-03-15T21:40:12.355Z,1.37
2019-03-15T21:42:40.948Z,1.60
2019-03-15T21:45:10.345Z,1.67
2019-03-15T21:47:38.622Z,1.70
2019-03-15T21:50:14.604Z,1.50
2019-03-15T21:52:42.887Z,1.50
2019-03-15T21:55:11.182Z,1.40
2019-03-15T21:57:39.461Z,1.53
2019-03-15T22:00:10.998Z,1.47
2019-03-15T22:02:39.355Z,1.60
2019-03-15T22:05:08.406Z,1.57
2019-03-15T22:07:36.773Z,1.60
2019-03-15T22:10:12.773Z,1.30
2019-03-15T22:12:41.227Z,1.50
2019-03-15T22:15:13.273Z,1.50
2019-03-15T22:17:41.684Z,1.43
2019-03-15T22:20:16.890Z,1.47
2019-03-15T22:22:45.177Z,1.70
2019-03-15T22:25:13.662Z,1.57
2019-03-15T22:27:41.992Z,1.60
2019-03-15T22:30:14.054Z,1.30
2019-03-15T22:32:42.347Z,1.23
2019-03-15T22:35:10.626Z,1.23
2019-03-15T22:37:38.916Z,1.47
2019-03-15T22:40:09.472Z,1.40
2019-03-15T22:42:37.936Z,1.60
2019-03-15T22:45:08.382Z,1.30
2019-03-15T22:47:36.658Z,1.60
2019-03-15T22:50:06.793Z,1.40
2019-03-15T22:52:35.069Z,1.53
2019-03-15T22:55:03.359Z,1.40
2019-03-15T22:57:31.633Z,1.43
2019-03-15T22:59:59.979Z,1.40
2019-03-15T23:02:28.337Z,1.20
2019-03-15T23:04:56.727Z,1.50
2019-03-15T23:07:25.118Z,1.40
2019-03-15T23:09:53.491Z,1.37
2019-03-15T23:12:21.887Z,1.30
2019-03-15T23:14:50.255Z,1.33
2019-03-15T23:17:18.651Z,1.40
2019-03-15T23:19:47.016Z,1.40
2019-03-15T23:22:15.418Z,1.53
2019-03-15T23:24:43.793Z,1.50
2019-03-15T23:27:12.176Z,1.57
2019-03-15T23:29:40.565Z,1.30
2019-03-15T23:32:08.954Z,1.30
2019-03-15T23:34:37.331Z,1.23
2019-03-15T23:37:05.715Z,1.50
2019-03-15T23:39:34.084Z,1.30
2019-03-15T23:42:02.470Z,1.30
2019-03-15T23:44:30.838Z,1.70
2019-03-15T23:46:59.222Z,1.37
2019-03-15T23:49:27.616Z,1.57
2019-03-15T23:51:56.001Z,1.30
2019-03-15T23:54:24.363Z,1.50
2019-03-15T23:56:52.718Z,1.50
2019-03-15T23:59:21.016Z,1.40
